Time;durP1;ratioP1;P1;durP2;ratioP2;P2;SDS_P1;SDS_P2;PMS_P1;PMS_P2;Temp;Humidity;BMP_temperature;BMP_pressure;BME280_temperature;BME280_humidity;BME280_pressure;Samples;Min_cycle;Max_cycle;Signal;HPM_P1;HPM_P2
2022/04/16 00:01:05;;;;;;;0.73;0.73;;;9.90;6.00;;;;;;5054453;28;20193;-75
2022/04/16 00:03:31;;;;;;;0.67;0.67;;;9.90;1.00;;;;;;5037131;28;20269;-76
2022/04/16 00:05:57;;;;;;;0.60;0.60;;;9.90;52.80;;;;;;5054427;28;20183;-76
2022/04/16 00:08:27;;;;;;;0.50;0.50;;;9.80;1.00;;;;;;5054065;28;20786;-76
2022/04/16 00:10:53;;;;;;;0.60;0.60;;;9.80;1.00;;;;;;5035634;28;20211;-76
2022/04/16 00:13:20;;;;;;;0.60;0.60;;;9.80;1.00;;;;;;5054095;28;20265;-76
2022/04/16 00:15:49;;;;;;;0.70;0.70;;;9.70;1.00;;;;;;5054046;28;20636;-76
2022/04/16 00:18:15;;;;;;;0.60;0.60;;;9.80;1.00;;;;;;5053203;28;20187;-76
2022/04/16 00:20:42;;;;;;;0.63;0.63;;;9.80;1.00;;;;;;5053353;28;20241;-76
2022/04/16 00:23:08;;;;;;;0.50;0.50;;;9.70;1.00;;;;;;5053826;28;20206;-75
2022/04/16 00:25:34;;;;;;;0.50;0.50;;;9.70;1.00;;;;;;5053650;28;20302;-75
2022/04/16 00:28:03;;;;;;;0.60;0.60;;;9.70;1.00;;;;;;5053722;28;20179;-78
2022/04/16 00:30:30;;;;;;;0.60;0.60;;;9.70;1.00;;;;;;5053038;28;20644;-76
2022/04/16 00:32:57;;;;;;;0.60;0.60;;;9.60;1.00;;;;;;5053703;28;20248;-76
2022/04/16 00:35:23;;;;;;;0.80;0.80;;;9.70;1.00;;;;;;5053575;28;20546;-76
2022/04/16 00:37:49;;;;;;;0.60;0.60;;;9.60;1.00;;;;;;5053747;28;20250;-76
2022/04/16 00:40:14;;;;;;;0.63;0.63;;;9.60;1.00;;;;;;5052956;28;20195;-75
2022/04/16 00:42:44;;;;;;;0.70;0.70;;;9.50;1.00;;;;;;5035598;28;20616;-77
2022/04/16 00:45:10;;;;;;;0.60;0.60;;;9.50;1.00;;;;;;5053473;28;20314;-75
2022/04/16 00:47:36;;;;;;;0.60;0.60;;;9.50;1.00;;;;;;5053513;28;20172;-76
2022/04/16 00:50:04;;;;;;;0.70;0.70;;;9.40;1.00;;;;;;5052801;28;20179;-76
2022/04/16 00:52:30;;;;;;;0.60;0.60;;;9.40;10.90;;;;;;5053037;28;20171;-76
2022/04/16 00:54:56;;;;;;;0.60;0.60;;;9.40;1.00;;;;;;5053319;28;20536;-75
2022/04/16 00:57:23;;;;;;;0.60;0.60;;;9.30;99.90;;;;;;5052950;28;20190;-75
2022/04/16 00:59:49;;;;;;;0.60;0.60;;;9.30;99.90;;;;;;5052548;28;20175;-76
2022/04/16 01:02:14;;;;;;;0.50;0.50;;;9.30;66.20;;;;;;5053117;28;20198;-76
2022/04/16 01:04:40;;;;;;;0.60;0.60;;;9.30;50.00;;;;;;5053084;28;20347;-76
2022/04/16 01:07:06;;;;;;;0.60;0.60;;;9.30;52.80;;;;;;5053076;28;20658;-75
2022/04/16 01:09:33;;;;;;;0.70;0.70;;;9.30;99.90;;;;;;5052505;28;20188;-75
2022/04/16 01:11:59;;;;;;;0.70;0.70;;;9.20;99.90;;;;;;5052859;28;20214;-75
2022/04/16 01:14:25;;;;;;;0.60;0.60;;;9.20;99.90;;;;;;5034900;28;20183;-75
2022/04/16 01:16:57;;;;;;;0.60;0.60;;;9.20;99.90;;;;;;5052959;28;20186;-75
2022/04/16 01:19:23;;;;;;;0.70;0.70;;;9.10;99.90;;;;;;5052312;28;20179;-75
2022/04/16 01:21:50;;;;;;;0.60;0.60;;;9.10;99.90;;;;;;5052911;28;20285;-78
2022/04/16 01:24:15;;;;;;;0.60;0.60;;;9.10;99.90;;;;;;5052925;28;20207;-75
2022/04/16 01:26:41;;;;;;;0.60;0.60;;;9.10;99.90;;;;;;5053007;28;20179;-75
2022/04/16 01:29:08;;;;;;;0.70;0.70;;;9.00;1.00;;;;;;5052450;28;20814;-76
2022/04/16 01:31:33;;;;;;;0.60;0.60;;;9.00;1.00;;;;;;5052843;28;20260;-76
2022/04/16 01:33:59;;;;;;;0.60;0.60;;;8.90;1.00;;;;;;5053980;28;20191;-76
2022/04/16 01:36:29;;;;;;;0.70;0.70;;;8.90;1.00;;;;;;5053796;28;20201;-76
2022/04/16 01:38:58;;;;;;;0.60;0.60;;;8.90;1.00;;;;;;5052182;28;20206;-76
2022/04/16 01:41:28;;;;;;;0.60;0.60;;;8.90;1.00;;;;;;5052188;28;20567;-75
2022/04/16 01:43:54;;;;;;;0.63;0.63;;;8.90;1.00;;;;;;5052195;28;20206;-76
2022/04/16 01:46:21;;;;;;;0.53;0.53;;;8.80;18.40;;;;;;5052399;28;20652;-75
2022/04/16 01:48:47;;;;;;;0.70;0.70;;;8.90;22.00;;;;;;5052176;28;20258;-75
2022/04/16 01:51:17;;;;;;;0.70;0.70;;;8.80;7.40;;;;;;5051899;28;20206;-75
2022/04/16 01:53:44;;;;;;;0.63;0.63;;;8.80;99.90;;;;;;5052134;28;20187;-75
2022/04/16 01:56:10;;;;;;;0.60;0.60;;;8.70;99.90;;;;;;5053199;28;20214;-75
2022/04/16 01:58:38;;;;;;;0.60;0.60;;;8.70;1.00;;;;;;5053750;28;20648;-75
2022/04/16 02:01:05;;;;;;;0.60;0.60;;;8.70;1.00;;;;;;5048088;28;20716;-76
2022/04/16 02:03:30;;;;;;;0.70;0.70;;;8.70;1.00;;;;;;5051489;28;20257;-76
2022/04/16 02:05:56;;;;;;;0.70;0.70;;;8.70;1.00;;;;;;5048814;28;20385;-76
2022/04/16 02:08:21;;;;;;;0.60;0.60;;;8.70;1.00;;;;;;5051438;28;20190;-76
2022/04/16 02:10:47;;;;;;;0.70;0.70;;;8.70;1.00;;;;;;5051063;28;20201;-76
2022/04/16 02:13:12;;;;;;;0.60;0.60;;;8.70;51.10;;;;;;5051545;28;20171;-75
2022/04/16 02:15:38;;;;;;;0.60;0.60;;;8.60;99.90;;;;;;5051581;28;20175;-75
2022/04/16 02:18:04;;;;;;;0.70;0.70;;;8.60;1.00;;;;;;5051416;28;20171;-76
2022/04/16 02:20:30;;;;;;;0.60;0.60;;;8.50;1.00;;;;;;5050667;28;20199;-75
2022/04/16 02:22:55;;;;;;;0.60;0.60;;;8.50;1.00;;;;;;5048466;28;20179;-76
2022/04/16 02:25:24;;;;;;;0.60;0.60;;;8.40;1.00;;;;;;5051169;28;20653;-75
2022/04/16 02:27:49;;;;;;;0.60;0.60;;;8.40;1.00;;;;;;5051061;28;20290;-75
2022/04/16 02:30:16;;;;;;;0.60;0.60;;;8.40;1.00;;;;;;5048961;28;20207;-75
2022/04/16 02:32:45;;;;;;;0.70;0.70;;;8.40;1.00;;;;;;5051528;28;20191;-75
2022/04/16 02:35:13;;;;;;;0.60;0.60;;;8.30;1.00;;;;;;5051652;28;20221;-77
2022/04/16 02:37:38;;;;;;;0.60;0.60;;;8.20;99.90;;;;;;5051761;28;20186;-77
2022/04/16 02:40:05;;;;;;;0.60;0.60;;;8.10;1.00;;;;;;5050603;28;20195;-76
2022/04/16 02:42:37;;;;;;;0.70;0.70;;;7.90;1.00;;;;;;5051838;28;20167;-78
2022/04/16 02:47:48;;;;;;;0.70;0.70;;;7.70;99.90;;;;;;5051509;28;20225;-76
2022/04/16 02:50:15;;;;;;;0.70;0.70;;;7.80;1.00;;;;;;5050834;28;20222;-76
2022/04/16 02:52:41;;;;;;;0.73;0.73;;;7.60;1.00;;;;;;5051358;28;20175;-76
2022/04/16 02:55:07;;;;;;;0.70;0.70;;;7.50;1.00;;;;;;5051771;28;20183;-77
2022/04/16 02:57:33;;;;;;;0.60;0.60;;;7.60;1.00;;;;;;5051339;28;20179;-78
2022/04/16 02:59:59;;;;;;;0.60;0.60;;;7.70;1.00;;;;;;5050802;28;20262;-78
2022/04/16 03:02:24;;;;;;;0.60;0.60;;;7.60;1.00;;;;;;5051271;28;20171;-78
2022/04/16 03:04:50;;;;;;;0.60;0.60;;;7.60;1.00;;;;;;5051289;28;20247;-78
2022/04/16 03:07:19;;;;;;;0.70;0.70;;;7.60;1.00;;;;;;5051378;28;20175;-78
2022/04/16 03:09:44;;;;;;;0.60;0.60;;;7.70;1.00;;;;;;5050736;28;20175;-77
2022/04/16 03:12:10;;;;;;;0.60;0.60;;;7.60;16.10;;;;;;5051057;28;20554;-75
2022/04/16 03:17:31;;;;;;;0.60;0.60;;;7.60;3.60;;;;;;5050886;28;20698;-76
2022/04/16 03:19:57;;;;;;;0.60;0.60;;;7.70;1.00;;;;;;5050337;28;20655;-75
2022/04/16 03:22:23;;;;;;;0.50;0.50;;;7.70;1.00;;;;;;5051388;28;20175;-77
2022/04/16 03:24:49;;;;;;;0.60;0.60;;;7.80;1.00;;;;;;5051058;28;20215;-78
2022/04/16 03:27:16;;;;;;;0.70;0.70;;;7.80;1.00;;;;;;5050982;28;20198;-78
2022/04/16 03:29:41;;;;;;;0.60;0.60;;;7.80;1.00;;;;;;5050371;28;20187;-78
2022/04/16 03:32:07;;;;;;;0.70;0.70;;;7.90;1.00;;;;;;5051075;28;20393;-78
2022/04/16 03:34:33;;;;;;;0.70;0.70;;;7.90;1.00;;;;;;5050886;28;20199;-78
2022/04/16 03:36:59;;;;;;;0.70;0.70;;;7.90;1.00;;;;;;5050952;28;20190;-78
2022/04/16 03:39:25;;;;;;;0.50;0.50;;;7.80;1.00;;;;;;5050292;28;20527;-77
2022/04/16 03:41:51;;;;;;;0.70;0.70;;;7.90;1.00;;;;;;5050840;28;20187;-77
2022/04/16 03:44:16;;;;;;;0.70;0.70;;;7.90;1.00;;;;;;5050733;28;20248;-77
2022/04/16 03:46:42;;;;;;;0.70;0.70;;;7.90;1.00;;;;;;5033157;28;20179;-78
2022/04/16 03:49:07;;;;;;;0.60;0.60;;;7.90;1.00;;;;;;5050245;28;20183;-77
2022/04/16 03:51:33;;;;;;;0.60;0.60;;;7.90;1.00;;;;;;5050317;28;20201;-77
2022/04/16 03:59:59;;;;;;;0.70;0.70;;;7.80;1.00;;;;;;5053681;28;20202;-76
2022/04/16 04:02:12;;;;;;;0.70;0.70;;;7.60;99.90;;;;;;5054019;28;20553;-77
2022/04/16 04:04:38;;;;;;;0.70;0.70;;;7.50;99.90;;;;;;5053981;28;20214;-77
2022/04/16 04:07:04;;;;;;;0.60;0.60;;;7.50;1.00;;;;;;5053970;28;20186;-77
2022/04/16 04:09:31;;;;;;;0.50;0.50;;;7.50;1.00;;;;;;5053759;28;20190;-77
2022/04/16 04:11:57;;;;;;;0.60;0.60;;;7.60;99.90;;;;;;5054136;28;20211;-77
2022/04/16 04:14:22;;;;;;;0.60;0.60;;;7.60;1.00;;;;;;5054303;28;20175;-77
2022/04/16 04:16:48;;;;;;;0.70;0.70;;;7.70;1.00;;;;;;5053948;28;20179;-76
2022/04/16 04:19:13;;;;;;;0.60;0.60;;;7.70;1.00;;;;;;5053484;28;20554;-76
2022/04/16 04:21:39;;;;;;;0.73;0.73;;;7.70;1.00;;;;;;5053675;28;20194;-77
2022/04/16 04:24:04;;;;;;;0.70;0.70;;;7.70;1.00;;;;;;5054043;28;20205;-77
2022/04/16 04:26:30;;;;;;;0.70;0.70;;;7.80;99.90;;;;;;5054040;28;20175;-77
2022/04/16 04:28:55;;;;;;;0.70;0.70;;;7.80;99.90;;;;;;5053311;28;20702;-78
2022/04/16 04:31:21;;;;;;;0.70;0.70;;;7.90;99.90;;;;;;5053734;28;20704;-76
2022/04/16 04:33:46;;;;;;;0.70;0.70;;;7.90;99.90;;;;;;5053619;28;20532;-77
2022/04/16 04:36:12;;;;;;;0.70;0.70;;;7.90;99.90;;;;;;5053204;28;20198;-77
2022/04/16 04:38:37;;;;;;;0.60;0.60;;;7.90;99.90;;;;;;5053737;28;20171;-77
2022/04/16 04:41:04;;;;;;;0.60;0.60;;;7.90;99.90;;;;;;5053245;28;20195;-77
2022/04/16 04:43:30;;;;;;;0.70;0.70;;;7.90;99.90;;;;;;5053639;28;20185;-77
2022/04/16 04:45:55;;;;;;;0.73;0.73;;;7.80;1.00;;;;;;5054176;28;20215;-77
2022/04/16 04:48:21;;;;;;;0.60;0.60;;;7.70;1.00;;;;;;5053593;28;20578;-77
2022/04/16 04:50:46;;;;;;;0.60;0.60;;;7.70;99.90;;;;;;5052722;28;20199;-77
2022/04/16 04:53:12;;;;;;;0.70;0.70;;;7.70;99.90;;;;;;5053535;28;20210;-77
2022/04/16 04:55:37;;;;;;;0.70;0.70;;;7.80;99.90;;;;;;5053583;28;20236;-77
2022/04/16 04:58:03;;;;;;;0.60;0.60;;;7.80;99.90;;;;;;5056666;28;20202;-77
2022/04/16 05:00:29;;;;;;;0.60;0.60;;;7.80;99.90;;;;;;5055742;28;20730;-76
2022/04/16 05:02:54;;;;;;;0.60;0.60;;;7.80;99.90;;;;;;5053003;28;20262;-75
2022/04/16 05:05:20;;;;;;;0.60;0.60;;;7.80;99.90;;;;;;5052809;28;20309;-76
2022/04/16 05:07:45;;;;;;;0.80;0.80;;;7.80;99.90;;;;;;5053273;28;20183;-76
2022/04/16 05:10:11;;;;;;;0.70;0.70;;;8.00;1.00;;;;;;5052365;28;20660;-76
2022/04/16 05:12:37;;;;;;;0.70;0.70;;;8.10;99.90;;;;;;5052723;28;20621;-75
2022/04/16 05:15:04;;;;;;;0.70;0.70;;;8.20;99.90;;;;;;5052858;28;20215;-76
2022/04/16 05:17:29;;;;;;;0.60;0.60;;;8.30;15.50;;;;;;5047661;28;20227;-76
2022/04/16 05:19:55;;;;;;;0.60;0.60;;;8.30;1.00;;;;;;5034795;28;20667;-76
2022/04/16 05:22:20;;;;;;;0.60;0.60;;;8.40;1.00;;;;;;5033002;28;20645;-76
2022/04/16 05:24:46;;;;;;;0.60;0.60;;;8.50;1.00;;;;;;5032889;28;20216;-76
2022/04/16 05:27:12;;;;;;;0.60;0.60;;;8.60;1.00;;;;;;5033645;28;20521;-76
2022/04/16 05:29:56;;;;;;;0.60;0.60;;;8.60;1.00;;;;;;5041743;28;20576;-76
2022/04/16 05:32:23;;;;;;;0.70;0.70;;;8.70;1.00;;;;;;5037566;28;20254;-76
2022/04/16 05:34:49;;;;;;;0.60;0.60;;;8.80;76.20;;;;;;5032784;28;20184;-76
2022/04/16 05:37:15;;;;;;;0.70;0.70;;;8.80;1.00;;;;;;5035545;28;20523;-73
2022/04/16 05:39:40;;;;;;;0.60;0.60;;;8.90;99.90;;;;;;5042830;28;20202;-74
2022/04/16 05:42:07;;;;;;;0.70;0.70;;;9.20;1.00;;;;;;5046304;28;20191;-74
2022/04/16 05:44:33;;;;;;;0.70;0.70;;;9.40;1.00;;;;;;5051702;28;20221;-76
2022/04/16 05:46:58;;;;;;;0.60;0.60;;;9.40;99.90;;;;;;5047930;28;20258;-77
2022/04/16 05:49:24;;;;;;;0.60;0.60;;;9.70;92.80;;;;;;5051806;28;20210;-76
2022/04/16 05:51:49;;;;;;;0.67;0.67;;;9.70;99.90;;;;;;5052050;28;20191;-74
2022/04/16 05:54:15;;;;;;;0.70;0.70;;;9.60;99.90;;;;;;5052259;28;20171;-77
2022/04/16 05:56:40;;;;;;;0.50;0.50;;;9.50;1.00;;;;;;5051344;28;20860;-75
2022/04/16 05:59:06;;;;;;;0.70;0.70;;;9.50;99.90;;;;;;5051626;28;20175;-75
2022/04/16 06:01:31;;;;;;;0.70;0.70;;;9.80;74.60;;;;;;5051846;28;20241;-75
2022/04/16 06:03:57;;;;;;;0.70;0.70;;;9.80;1.00;;;;;;5051815;28;20175;-76
2022/04/16 06:06:22;;;;;;;0.70;0.70;;;9.70;1.00;;;;;;5051732;28;20183;-76
2022/04/16 06:08:48;;;;;;;0.60;0.60;;;9.70;1.00;;;;;;5051334;28;20246;-76
2022/04/16 06:11:17;;;;;;;0.60;0.60;;;9.70;99.90;;;;;;5041155;28;20191;-75
2022/04/16 06:13:42;;;;;;;0.60;0.60;;;9.50;99.90;;;;;;5042668;28;20269;-76
2022/04/16 06:16:09;;;;;;;0.70;0.70;;;9.70;50.90;;;;;;5037666;28;20649;-75
2022/04/16 06:18:35;;;;;;;0.70;0.70;;;9.90;1.00;;;;;;5049689;28;20175;-75
2022/04/16 06:21:00;;;;;;;0.60;0.60;;;9.90;1.00;;;;;;5050694;28;20214;-76
2022/04/16 06:23:26;;;;;;;0.70;0.70;;;10.00;1.00;;;;;;5053030;28;20538;-74
2022/04/16 06:25:52;;;;;;;0.70;0.70;;;9.90;99.90;;;;;;5039290;28;20722;-77
2022/04/16 06:28:17;;;;;;;0.50;0.50;;;9.80;1.00;;;;;;5037143;28;20273;-76
2022/04/16 06:30:43;;;;;;;0.67;0.67;;;9.60;99.90;;;;;;5044288;28;20281;-76
2022/04/16 06:33:08;;;;;;;0.60;0.60;;;9.60;99.90;;;;;;5048421;28;20555;-76
2022/04/16 06:35:34;;;;;;;0.70;0.70;;;9.40;1.00;;;;;;5051662;28;20185;-77
2022/04/16 06:37:59;;;;;;;0.60;0.60;;;9.50;23.20;;;;;;5051510;28;20181;-77
2022/04/16 06:40:25;;;;;;;0.70;0.70;;;9.50;1.00;;;;;;5047427;28;20199;-77
2022/04/16 06:42:52;;;;;;;0.70;0.70;;;9.60;1.00;;;;;;5040784;28;20175;-77
2022/04/16 06:45:18;;;;;;;0.67;0.67;;;9.60;7.40;;;;;;5050412;28;20238;-77
2022/04/16 06:47:43;;;;;;;0.53;0.53;;;9.50;1.00;;;;;;5049264;28;20218;-76
2022/04/16 06:50:09;;;;;;;0.60;0.60;;;9.70;1.00;;;;;;5033408;28;20211;-76
2022/04/16 06:52:35;;;;;;;0.70;0.70;;;9.60;99.90;;;;;;5033150;28;20175;-78
2022/04/16 06:55:01;;;;;;;0.70;0.70;;;9.70;1.00;;;;;;5053695;28;20698;-77
2022/04/16 06:57:27;;;;;;;0.60;0.60;;;9.60;1.00;;;;;;5051186;28;20171;-75
2022/04/16 06:59:52;;;;;;;0.73;0.73;;;9.60;1.00;;;;;;5050614;28;20190;-75
2022/04/16 07:02:18;;;;;;;0.53;0.53;;;9.70;36.60;;;;;;5051837;28;20167;-76
2022/04/16 07:04:44;;;;;;;0.80;0.80;;;9.70;1.00;;;;;;5051281;28;20268;-76
2022/04/16 07:07:09;;;;;;;0.60;0.60;;;9.80;1.00;;;;;;5051565;28;20171;-77
2022/04/16 07:09:38;;;;;;;0.60;0.60;;;9.70;1.00;;;;;;5051098;28;20183;-77
2022/04/16 07:12:06;;;;;;;0.67;0.67;;;9.70;1.00;;;;;;5033244;28;20199;-78
2022/04/16 07:14:33;;;;;;;0.73;0.73;;;9.70;1.00;;;;;;5051062;28;20187;-76
2022/04/16 07:16:58;;;;;;;0.60;0.60;;;9.80;1.00;;;;;;5051304;28;20179;-76
2022/04/16 07:19:24;;;;;;;0.60;0.60;;;10.00;1.00;;;;;;5050801;28;20179;-76
2022/04/16 07:21:49;;;;;;;0.70;0.70;;;9.90;1.00;;;;;;5051190;28;20191;-75
2022/04/16 07:24:15;;;;;;;0.50;0.50;;;10.00;1.00;;;;;;5047655;28;20230;-75
2022/04/16 07:26:40;;;;;;;0.60;0.60;;;10.00;1.00;;;;;;5049015;28;20183;-76
2022/04/16 07:29:06;;;;;;;0.70;0.70;;;10.00;1.00;;;;;;5054292;28;20645;-77
2022/04/16 07:31:31;;;;;;;0.70;0.70;;;9.90;1.00;;;;;;5037036;28;20245;-76
2022/04/16 07:33:57;;;;;;;0.70;0.70;;;9.70;1.00;;;;;;5054840;28;20183;-76
2022/04/16 07:36:22;;;;;;;0.60;0.60;;;9.90;1.00;;;;;;5054955;28;20233;-76
2022/04/16 07:38:48;;;;;;;0.70;0.70;;;9.80;1.00;;;;;;5054901;28;20163;-75
2022/04/16 07:41:13;;;;;;;0.60;0.60;;;9.70;1.00;;;;;;5054196;28;20195;-75
2022/04/16 07:43:39;;;;;;;0.60;0.60;;;9.70;1.00;;;;;;5054472;28;20191;-78
2022/04/16 07:46:05;;;;;;;0.70;0.70;;;9.70;1.00;;;;;;5054816;28;20305;-76
2022/04/16 07:48:30;;;;;;;0.70;0.70;;;9.80;18.80;;;;;;5054734;28;20265;-77
2022/04/16 07:50:55;;;;;;;0.70;0.70;;;9.90;1.00;;;;;;5049222;28;20195;-76
2022/04/16 07:53:21;;;;;;;0.70;0.70;;;10.00;1.00;;;;;;5051626;28;20215;-78
2022/04/16 07:55:47;;;;;;;0.77;0.77;;;10.00;1.00;;;;;;5054221;28;20175;-75
2022/04/16 07:58:13;;;;;;;0.60;0.60;;;10.00;1.00;;;;;;5054368;28;20221;-77
2022/04/16 08:00:39;;;;;;;0.60;0.60;;;10.10;1.00;;;;;;5054147;28;20259;-76
2022/04/16 08:03:05;;;;;;;0.60;0.60;;;10.00;1.00;;;;;;5055986;28;20179;-76
2022/04/16 08:05:31;;;;;;;0.63;0.63;;;10.00;1.00;;;;;;5055961;28;20211;-77
2022/04/16 08:07:56;;;;;;;0.73;0.73;;;10.00;1.00;;;;;;5056863;28;20654;-77
2022/04/16 08:10:22;;;;;;;0.57;0.57;;;10.00;1.00;;;;;;5055312;28;20205;-76
2022/04/16 08:12:47;;;;;;;0.60;0.60;;;10.00;1.00;;;;;;5054218;28;20175;-74
2022/04/16 08:15:13;;;;;;;0.70;0.70;;;10.00;1.00;;;;;;5054263;28;20174;-75
2022/04/16 08:17:39;;;;;;;0.67;0.67;;;10.10;1.00;;;;;;5054529;28;20179;-76
2022/04/16 08:20:08;;;;;;;0.57;0.57;;;10.20;1.00;;;;;;5053272;28;20214;-75
2022/04/16 08:22:38;;;;;;;0.60;0.60;;;10.30;1.00;;;;;;5053958;28;20198;-74
2022/04/16 08:27:49;;;;;;;0.70;0.70;;;10.50;1.00;;;;;;5054312;28;20172;-76
2022/04/16 08:30:16;;;;;;;0.67;0.67;;;10.60;1.00;;;;;;5053732;28;20199;-76
2022/04/16 08:35:18;;;;;;;0.60;0.60;;;10.50;1.00;;;;;;5087654;22;20840;-77
2022/04/16 08:37:43;;;;;;;0.60;0.60;;;10.50;1.00;;;;;;5074659;28;20181;-75
2022/04/16 08:40:10;;;;;;;0.60;0.60;;;10.50;1.00;;;;;;5070167;28;20553;-77
2022/04/16 08:42:37;;;;;;;0.57;0.57;;;10.60;1.00;;;;;;5054537;28;20183;-76
2022/04/16 08:45:05;;;;;;;0.60;0.60;;;10.70;1.00;;;;;;5053368;28;20211;-76
2022/04/16 08:47:31;;;;;;;0.60;0.60;;;10.90;99.90;;;;;;5054250;28;20258;-76
2022/04/16 08:49:59;;;;;;;0.70;0.70;;;10.90;1.00;;;;;;5053404;28;20622;-75
2022/04/16 08:52:29;;;;;;;0.50;0.50;;;11.00;99.90;;;;;;5053603;28;20266;-76
2022/04/16 08:54:56;;;;;;;0.67;0.67;;;11.00;99.90;;;;;;5053557;28;20180;-76
2022/04/16 08:57:22;;;;;;;0.57;0.57;;;11.00;99.90;;;;;;5054018;28;20172;-75
2022/04/16 08:59:52;;;;;;;0.60;0.60;;;11.00;99.90;;;;;;5053118;28;20178;-75
2022/04/16 09:02:22;;;;;;;0.60;0.60;;;10.90;99.90;;;;;;5053589;28;20175;-74
2022/04/16 09:04:49;;;;;;;0.70;0.70;;;11.10;99.90;;;;;;5053398;28;20207;-74
2022/04/16 09:07:15;;;;;;;0.60;0.60;;;11.00;99.90;;;;;;5050551;28;20532;-74
2022/04/16 09:09:44;;;;;;;0.57;0.57;;;11.20;99.90;;;;;;5051087;28;20252;-74
2022/04/16 09:12:19;;;;;;;0.50;0.50;;;11.30;99.90;;;;;;5046344;28;20179;-75
2022/04/16 09:14:46;;;;;;;0.60;0.60;;;11.30;99.90;;;;;;5051863;28;20186;-75
2022/04/16 09:17:16;;;;;;;0.60;0.60;;;11.00;99.90;;;;;;5053113;28;20202;-74
2022/04/16 09:19:42;;;;;;;0.60;0.60;;;11.00;99.90;;;;;;5050428;28;20179;-75
2022/04/16 09:22:10;;;;;;;0.40;0.40;;;10.90;99.90;;;;;;5047255;28;20426;-73
2022/04/16 09:24:46;;;;;;;0.60;0.60;;;10.80;1.00;;;;;;5041716;28;20207;-74
2022/04/16 09:27:12;;;;;;;0.60;0.60;;;10.60;1.00;;;;;;5046182;28;20180;-75
2022/04/16 09:29:40;;;;;;;0.60;0.60;;;10.60;1.00;;;;;;5040187;28;20191;-75
2022/04/16 09:32:06;;;;;;;0.63;0.63;;;10.50;1.00;;;;;;5032731;28;20192;-75
2022/04/16 09:34:32;;;;;;;0.60;0.60;;;10.60;1.00;;;;;;5032363;28;20195;-75
2022/04/16 09:36:57;;;;;;;0.63;0.63;;;10.50;1.00;;;;;;5032748;28;20316;-76
2022/04/16 09:39:25;;;;;;;0.53;0.53;;;10.60;1.00;;;;;;5039996;28;20187;-74
2022/04/16 09:41:54;;;;;;;0.60;0.60;;;10.60;1.00;;;;;;5044275;28;20191;-74
2022/04/16 09:44:21;;;;;;;0.60;0.60;;;10.70;1.00;;;;;;5052371;28;20231;-75
2022/04/16 09:46:48;;;;;;;0.60;0.60;;;10.70;1.00;;;;;;5052314;28;20270;-74
2022/04/16 09:49:14;;;;;;;0.57;0.57;;;10.80;1.00;;;;;;5044805;28;20187;-76
2022/04/16 09:51:45;;;;;;;0.60;0.60;;;11.10;1.00;;;;;;5049735;28;20191;-75
2022/04/16 09:54:12;;;;;;;0.50;0.50;;;11.10;1.00;;;;;;5052406;28;20179;-75
2022/04/16 09:56:40;;;;;;;0.60;0.60;;;11.20;99.90;;;;;;5052230;28;20176;-76
2022/04/16 09:59:08;;;;;;;0.60;0.60;;;11.30;99.90;;;;;;5051619;28;20175;-74
2022/04/16 10:01:38;;;;;;;0.60;0.60;;;11.40;99.90;;;;;;5051884;28;20210;-75
2022/04/16 10:04:03;;;;;;;0.70;0.70;;;11.50;99.90;;;;;;5051794;28;20670;-74
2022/04/16 10:06:30;;;;;;;0.50;0.50;;;11.40;99.90;;;;;;5051867;28;20179;-76
2022/04/16 10:08:57;;;;;;;0.53;0.53;;;11.20;99.90;;;;;;5051443;28;20171;-75
2022/04/16 10:12:59;;;;;;;0.60;0.60;;;11.20;99.90;;;;;;5051755;28;20206;-75
2022/04/16 10:14:36;;;;;;;0.57;0.57;;;11.20;99.90;;;;;;5051671;28;20259;-74
2022/04/16 10:17:24;;;;;;;0.60;0.60;;;11.10;99.90;;;;;;5052023;28;20269;-73
2022/04/16 10:19:49;;;;;;;0.50;0.50;;;11.20;99.90;;;;;;5051080;28;20183;-73
2022/04/16 10:22:51;;;;;;;0.60;0.60;;;11.40;99.90;;;;;;5051809;28;20186;-74
2022/04/16 10:25:31;;;;;;;0.60;0.60;;;11.60;1.00;;;;;;5051453;28;20206;-74
2022/04/16 10:28:04;;;;;;;0.60;0.60;;;11.70;1.00;;;;;;5051443;28;20655;-74
2022/04/16 10:30:41;;;;;;;0.50;0.50;;;11.80;1.00;;;;;;5051016;28;20202;-75
2022/04/16 10:33:31;;;;;;;0.50;0.50;;;12.10;1.00;;;;;;5051630;28;20175;-75
2022/04/16 10:36:02;;;;;;;0.50;0.50;;;11.80;1.00;;;;;;5051597;28;20180;-74
2022/04/16 10:38:33;;;;;;;0.57;0.57;;;11.70;1.00;;;;;;5051489;28;20178;-74
2022/04/16 10:41:00;;;;;;;0.50;0.50;;;11.60;1.00;;;;;;5050813;28;20195;-75
2022/04/16 10:43:33;;;;;;;0.50;0.50;;;11.50;1.00;;;;;;5051702;28;20255;-73
2022/04/16 10:46:07;;;;;;;0.60;0.60;;;11.70;1.00;;;;;;5051407;28;20218;-73
2022/04/16 10:48:34;;;;;;;0.60;0.60;;;12.20;1.00;;;;;;5051409;28;20228;-75
2022/04/16 10:51:00;;;;;;;0.50;0.50;;;12.20;1.00;;;;;;5050779;28;20285;-74
2022/04/16 10:53:28;;;;;;;0.60;0.60;;;12.10;1.00;;;;;;5032428;28;20305;-73
2022/04/16 10:55:54;;;;;;;0.57;0.57;;;12.10;1.00;;;;;;5043149;28;20179;-74
2022/04/16 10:58:27;;;;;;;0.50;0.50;;;12.30;1.00;;;;;;5051325;28;20198;-76
2022/04/16 11:01:04;;;;;;;0.50;0.50;;;12.10;1.00;;;;;;5050552;28;20761;-75
2022/04/16 11:03:30;;;;;;;0.60;0.60;;;12.10;1.00;;;;;;5055355;28;20183;-76
2022/04/16 11:06:05;;;;;;;0.60;0.60;;;12.40;1.00;;;;;;5055052;28;20226;-75
2022/04/16 11:08:35;;;;;;;0.53;0.53;;;13.10;1.00;;;;;;5055452;28;20170;-74
2022/04/16 11:11:04;;;;;;;0.50;0.50;;;14.30;1.00;;;;;;5054791;28;20672;-75
2022/04/16 11:13:31;;;;;;;0.40;0.40;;;15.60;1.00;;;;;;5037377;28;20544;-74
2022/04/16 11:15:58;;;;;;;0.50;0.50;;;16.30;1.00;;;;;;5054144;28;20652;-75
2022/04/16 11:18:25;;;;;;;0.40;0.40;;;16.50;1.00;;;;;;5046675;28;20172;-74
2022/04/16 11:20:57;;;;;;;0.40;0.40;;;16.20;1.00;;;;;;5054095;28;20683;-75
2022/04/16 11:23:26;;;;;;;0.50;0.50;;;14.70;1.00;;;;;;5055122;28;20656;-74
2022/04/16 11:34:14;;;;;;;0.60;0.60;;;13.70;1.00;;;;;;5052900;28;20233;-76
2022/04/16 11:36:40;;;;;;;0.50;0.50;;;13.40;1.00;;;;;;5051970;28;20210;-76
2022/04/16 11:39:15;;;;;;;0.50;0.50;;;13.30;1.00;;;;;;5051348;28;20223;-76
2022/04/16 11:41:54;;;;;;;0.50;0.50;;;13.30;1.00;;;;;;5051399;28;20240;-77
2022/04/16 11:44:38;;;;;;;0.50;0.50;;;13.50;1.00;;;;;;5045282;28;20175;-76
2022/04/16 11:47:10;;;;;;;0.50;0.50;;;13.10;1.00;;;;;;5052854;28;20175;-75
2022/04/16 11:49:37;;;;;;;0.40;0.40;;;13.20;1.00;;;;;;5051153;28;20219;-76
2022/04/16 11:52:04;;;;;;;0.40;0.40;;;13.00;1.00;;;;;;5054503;28;20199;-75
2022/04/16 11:54:30;;;;;;;0.40;0.40;;;13.00;1.00;;;;;;5054204;28;20539;-75
2022/04/16 11:56:57;;;;;;;0.50;0.50;;;13.10;1.00;;;;;;5054255;28;20491;-76
2022/04/16 11:59:27;;;;;;;0.40;0.40;;;13.30;1.00;;;;;;5053837;28;20175;-76
2022/04/16 12:02:09;;;;;;;0.50;0.50;;;13.40;1.00;;;;;;5054462;28;20199;-75
2022/04/16 12:04:43;;;;;;;0.40;0.40;;;13.40;1.00;;;;;;5054518;28;20210;-75
2022/04/16 12:07:13;;;;;;;0.33;0.33;;;14.80;1.00;;;;;;5054403;28;20278;-75
2022/04/16 12:09:49;;;;;;;0.50;0.50;;;14.60;1.00;;;;;;5053783;28;20175;-76
2022/04/16 12:12:20;;;;;;;0.40;0.40;;;13.90;1.00;;;;;;5054100;28;20668;-76
2022/04/16 12:14:50;;;;;;;0.50;0.50;;;14.00;1.00;;;;;;5033659;28;20199;-76
2022/04/16 12:17:24;;;;;;;0.47;0.47;;;14.50;1.00;;;;;;5053078;28;20202;-75
2022/04/16 12:19:57;;;;;;;0.37;0.37;;;14.60;1.00;;;;;;5044825;28;20199;-75
2022/04/16 12:22:22;;;;;;;0.40;0.40;;;15.30;1.00;;;;;;5054096;28;20183;-75
2022/04/16 12:24:48;;;;;;;0.50;0.50;;;15.00;1.00;;;;;;5053962;28;20236;-75
2022/04/16 12:27:24;;;;;;;0.40;0.40;;;15.50;1.00;;;;;;5053766;28;20675;-75
2022/04/16 12:29:53;;;;;;;0.40;0.40;;;15.60;1.00;;;;;;5053470;28;20182;-75
2022/04/16 12:32:28;;;;;;;0.40;0.40;;;16.00;1.00;;;;;;5053781;28;20644;-76
2022/04/16 12:34:54;;;;;;;0.50;0.50;;;15.20;1.00;;;;;;5053599;28;20673;-75
2022/04/16 12:37:21;;;;;;;0.40;0.40;;;15.00;1.00;;;;;;5053702;28;20209;-76
2022/04/16 12:39:48;;;;;;;0.40;0.40;;;15.80;1.00;;;;;;5053315;28;20187;-74
2022/04/16 12:42:14;;;;;;;0.30;0.30;;;16.00;1.00;;;;;;5053626;28;20175;-74
2022/04/16 12:44:40;;;;;;;0.30;0.30;;;16.70;1.00;;;;;;5049561;28;20352;-76
2022/04/16 12:47:07;;;;;;;0.40;0.40;;;16.60;1.00;;;;;;5048680;28;20543;-76
2022/04/16 12:49:33;;;;;;;0.37;0.37;;;17.10;1.00;;;;;;5041550;28;20168;-76
2022/04/16 12:51:58;;;;;;;0.40;0.40;;;17.50;1.00;;;;;;5046953;28;20206;-76
2022/04/16 12:54:24;;;;;;;0.43;0.43;;;16.80;1.00;;;;;;5047871;28;20309;-76
2022/04/16 12:56:49;;;;;;;0.40;0.40;;;16.60;1.00;;;;;;5042105;28;20214;-76
2022/04/16 12:59:15;;;;;;;0.30;0.30;;;15.30;1.00;;;;;;5052542;28;20182;-76
2022/04/16 13:01:40;;;;;;;0.47;0.47;;;15.60;1.00;;;;;;5037124;28;20199;-76
2022/04/16 13:04:06;;;;;;;0.40;0.40;;;15.70;1.00;;;;;;5048048;28;20182;-76
2022/04/16 13:06:31;;;;;;;0.40;0.40;;;15.80;1.00;;;;;;5046357;28;20618;-77
2022/04/16 13:09:00;;;;;;;0.50;0.50;;;16.10;1.00;;;;;;5042605;28;20175;-76
2022/04/16 13:11:26;;;;;;;0.40;0.40;;;15.50;1.00;;;;;;5052708;28;20195;-76
2022/04/16 13:13:53;;;;;;;0.50;0.50;;;15.40;1.00;;;;;;5036147;28;20175;-75
2022/04/16 13:16:19;;;;;;;0.40;0.40;;;15.90;1.00;;;;;;5048075;28;20246;-77
2022/04/16 13:18:45;;;;;;;0.40;0.40;;;15.40;1.00;;;;;;5023210;28;20214;-75
2022/04/16 13:21:11;;;;;;;0.40;0.40;;;15.90;1.00;;;;;;5040167;28;20199;-76
2022/04/16 13:23:36;;;;;;;0.40;0.40;;;16.70;1.00;;;;;;5048244;28;20171;-75
2022/04/16 13:26:02;;;;;;;0.40;0.40;;;16.70;1.00;;;;;;5035616;28;20211;-75